Raymond, Pennsylvania
Current Conditions -  °F | °C
As of 9:56 AM on Monday 22 Dec 2014 (Local Time) from KELZ Reporting Station
Clear Clear  
Wind Chill: 16°   Ceiling: Unl
Heat Index: 26°   Visibility: 10mi
Dew Point: 20°   Wind: 12mph
Humidity: 78%   Direction: 150°SSE
Pressure: 30.16"   Gusts: NA
Location:  41.915°N, 77.8855°W
Report Text: KELZ 221456Z AUTO 15010KT 10SM CLR M03/M07 A3016 RMK AO2 SLP242 T10331067 50001
Loading
Personal Weather Stations






























Interactive Weather Map New forecast layout! Learn more

10-Day Weather Forecast

Advertisements
Track Severe Weather on mobile